createdAt,value
2022-08-25T00:02:09.819Z,62.22
2022-08-25T00:04:37.543Z,62.47
2022-08-25T00:07:06.698Z,61.63
2022-08-25T00:09:35.341Z,60.69
2022-08-25T00:12:04.100Z,60.12
2022-08-25T00:14:35.271Z,59.13
2022-08-25T00:17:03.925Z,60.60
2022-08-25T00:19:35.677Z,61.06
2022-08-25T00:22:03.908Z,61.97
2022-08-25T00:24:31.151Z,62.77
2022-08-25T00:27:01.825Z,63.12
2022-08-25T00:29:32.963Z,64.02
2022-08-25T00:32:01.218Z,64.12
2022-08-25T00:34:34.468Z,63.96
2022-08-25T00:37:04.022Z,63.96
2022-08-25T00:39:31.292Z,64.49
2022-08-25T00:41:59.744Z,63.92
2022-08-25T00:44:32.258Z,64.53
2022-08-25T00:47:01.742Z,63.87
2022-08-25T00:49:32.210Z,63.57
2022-08-25T00:52:15.292Z,64.14
2022-08-25T00:54:53.120Z,62.05
2022-08-25T00:57:34.186Z,62.09
2022-08-25T01:00:08.203Z,62.34
2022-08-25T01:02:35.409Z,63.33
2022-08-25T01:05:03.046Z,63.12
2022-08-25T01:07:30.947Z,63.92
2022-08-25T01:09:58.039Z,63.89
2022-08-25T01:12:25.347Z,62.99
2022-08-25T01:14:53.896Z,61.81
2022-08-25T01:17:22.262Z,62.25
2022-08-25T01:19:49.278Z,62.25
2022-08-25T01:22:16.897Z,62.90
2022-08-25T01:24:54.918Z,62.73
2022-08-25T01:27:22.180Z,63.79
2022-08-25T01:29:49.354Z,63.53
2022-08-25T01:32:16.423Z,63.24
2022-08-25T01:34:45.562Z,63.43
2022-08-25T01:37:14.416Z,64.96
2022-08-25T01:39:42.934Z,65.30
2022-08-25T01:42:19.266Z,65.17
2022-08-25T01:44:48.042Z,64.91
2022-08-25T01:47:16.163Z,65.81
2022-08-25T01:49:46.618Z,65.09
2022-08-25T01:52:32.821Z,64.38
2022-08-25T01:55:00.142Z,64.90
2022-08-25T01:57:30.351Z,65.10
2022-08-25T01:59:58.831Z,65.72
2022-08-25T02:02:26.346Z,66.22
2022-08-25T02:04:53.962Z,66.91
2022-08-25T02:07:22.212Z,66.77
2022-08-25T02:09:49.648Z,66.98
2022-08-25T02:12:16.811Z,67.35
2022-08-25T02:15:07.792Z,67.36
2022-08-25T02:17:36.914Z,67.80
2022-08-25T02:20:09.185Z,68.05
2022-08-25T02:22:36.338Z,68.39
2022-08-25T02:25:04.318Z,68.67
2022-08-25T02:27:31.462Z,68.47
2022-08-25T02:29:58.526Z,67.65
2022-08-25T02:32:25.742Z,67.57
2022-08-25T02:34:53.251Z,67.13
2022-08-25T02:37:20.782Z,67.35
2022-08-25T02:39:47.977Z,67.19
2022-08-25T02:42:15.721Z,66.92
2022-08-25T02:44:42.951Z,66.85
2022-08-25T02:47:10.167Z,66.70
2022-08-25T02:49:37.295Z,66.37
2022-08-25T02:52:05.448Z,66.25
2022-08-25T02:54:32.570Z,65.98
2022-08-25T02:57:00.010Z,65.14
2022-08-25T02:59:27.541Z,63.29
2022-08-25T03:01:54.603Z,61.06
2022-08-25T03:04:21.897Z,59.30
2022-08-25T03:06:49.251Z,58.25
2022-08-25T03:09:17.137Z,57.45
2022-08-25T03:11:44.167Z,55.32
2022-08-25T03:14:11.551Z,55.77
2022-08-25T03:16:38.743Z,55.19
2022-08-25T03:19:06.144Z,55.05
2022-08-25T03:21:33.252Z,56.46
2022-08-25T03:24:00.914Z,55.00
2022-08-25T03:26:46.563Z,52.26
2022-08-25T03:29:14.444Z,49.93
2022-08-25T03:31:45.020Z,48.69
2022-08-25T03:34:13.909Z,45.98
2022-08-25T03:36:41.777Z,43.57
2022-08-25T03:39:09.870Z,40.95
2022-08-25T03:41:37.226Z,39.31
2022-08-25T03:44:06.404Z,39.75
2022-08-25T03:46:37.634Z,41.18
2022-08-25T03:49:08.099Z,43.39
2022-08-25T03:51:50.016Z,44.21
2022-08-25T03:54:21.183Z,44.97
2022-08-25T03:56:48.201Z,45.20
2022-08-25T03:59:15.544Z,43.21
2022-08-25T04:01:45.223Z,41.36
2022-08-25T04:04:15.095Z,38.40
2022-08-25T04:06:44.273Z,35.15
2022-08-25T04:09:11.771Z,32.18
2022-08-25T04:11:39.665Z,28.85
2022-08-25T04:14:09.849Z,27.06
2022-08-25T04:16:44.498Z,25.25
2022-08-25T04:19:12.255Z,23.48
2022-08-25T04:21:40.880Z,22.32
2022-08-25T04:24:10.389Z,21.65
2022-08-25T04:26:44.514Z,21.32
2022-08-25T04:29:13.923Z,21.77
2022-08-25T04:31:43.403Z,22.27
2022-08-25T04:34:14.766Z,22.20
2022-08-25T04:37:03.242Z,23.74
2022-08-25T04:39:30.695Z,24.43
2022-08-25T04:41:58.091Z,23.12
2022-08-25T04:44:25.690Z,21.59
2022-08-25T04:46:53.197Z,19.75
2022-08-25T04:49:20.370Z,18.05
2022-08-25T04:51:48.047Z,17.02
2022-08-25T04:54:22.410Z,15.99
2022-08-25T04:56:54.651Z,15.43
2022-08-25T04:59:29.542Z,14.74
2022-08-25T05:02:05.474Z,14.21
2022-08-25T05:04:38.012Z,13.53
2022-08-25T05:07:05.882Z,12.77
2022-08-25T05:09:33.647Z,12.47
2022-08-25T05:12:05.962Z,12.07
2022-08-25T05:14:34.480Z,12.17
2022-08-25T05:17:02.289Z,12.16
2022-08-25T05:19:30.376Z,12.56
2022-08-25T05:21:58.100Z,11.97
2022-08-25T05:24:26.353Z,11.75
2022-08-25T05:26:53.702Z,11.46
2022-08-25T05:29:21.030Z,11.90
2022-08-25T05:31:50.580Z,11.41
2022-08-25T05:34:19.753Z,11.08
2022-08-25T05:36:48.278Z,10.32
2022-08-25T05:39:15.777Z,10.04
2022-08-25T05:41:47.309Z,10.10
2022-08-25T05:44:18.003Z,9.84
2022-08-25T05:46:49.925Z,10.14
2022-08-25T05:49:29.067Z,10.04
2022-08-25T05:51:56.852Z,9.82
2022-08-25T05:54:24.716Z,9.88
2022-08-25T05:56:51.764Z,9.74
2022-08-25T05:59:18.918Z,9.33
2022-08-25T06:02:04.487Z,9.34
2022-08-25T06:04:32.673Z,9.34
2022-08-25T06:07:00.176Z,9.10
2022-08-25T06:09:27.995Z,8.83
2022-08-25T06:11:55.516Z,9.12
2022-08-25T06:14:24.161Z,9.03
2022-08-25T06:16:51.993Z,9.17
2022-08-25T06:19:19.740Z,9.73
2022-08-25T06:21:46.991Z,9.83
2022-08-25T06:24:15.681Z,10.24
2022-08-25T06:26:44.511Z,10.47
2022-08-25T06:29:14.245Z,10.21
2022-08-25T06:31:42.723Z,10.55
2022-08-25T06:34:11.593Z,10.94
2022-08-25T06:36:39.094Z,11.40
2022-08-25T06:39:06.880Z,11.24
2022-08-25T06:41:37.146Z,11.49
2022-08-25T06:44:05.771Z,11.87
2022-08-25T06:46:36.361Z,12.68
2022-08-25T06:49:06.443Z,13.99
2022-08-25T06:51:35.788Z,14.45
2022-08-25T06:54:03.663Z,15.85
2022-08-25T06:56:30.899Z,16.98
2022-08-25T06:58:58.390Z,18.52
2022-08-25T07:01:27.432Z,19.74
2022-08-25T07:03:57.708Z,20.50
2022-08-25T07:06:27.775Z,21.94
2022-08-25T07:08:55.275Z,23.19
2022-08-25T07:11:22.560Z,23.76
2022-08-25T07:13:50.632Z,24.18
2022-08-25T07:16:20.621Z,25.41
2022-08-25T07:18:48.937Z,26.09
2022-08-25T07:21:17.479Z,26.29
2022-08-25T07:23:48.112Z,26.83
2022-08-25T07:26:37.646Z,27.69
2022-08-25T07:29:31.986Z,28.37
2022-08-25T07:32:04.323Z,28.53
2022-08-25T07:34:51.962Z,29.00
2022-08-25T07:37:45.470Z,29.12
2022-08-25T07:40:14.377Z,29.13
2022-08-25T07:42:42.955Z,29.76
2022-08-25T07:45:11.726Z,29.20
2022-08-25T07:47:39.109Z,28.80
2022-08-25T07:50:08.877Z,29.33
2022-08-25T07:52:36.602Z,29.61
2022-08-25T07:55:08.407Z,29.86
2022-08-25T07:57:43.181Z,29.95
2022-08-25T08:00:11.523Z,30.03
2022-08-25T08:02:40.165Z,29.50
2022-08-25T08:05:09.725Z,28.98
2022-08-25T08:07:43.583Z,28.91
2022-08-25T08:13:02.361Z,29.75
2022-08-25T08:15:30.274Z,29.34
2022-08-25T08:17:59.174Z,29.12
2022-08-25T08:20:27.365Z,29.45
2022-08-25T08:22:55.786Z,28.97
2022-08-25T08:25:26.646Z,28.68
2022-08-25T08:27:55.977Z,28.65
2022-08-25T08:30:26.304Z,28.93
2022-08-25T08:33:11.663Z,28.23
2022-08-25T08:35:43.511Z,28.87
2022-08-25T08:38:17.199Z,29.08
2022-08-25T08:41:23.337Z,29.21
2022-08-25T08:43:56.717Z,28.55
2022-08-25T08:46:27.266Z,28.50
2022-08-25T08:48:57.333Z,29.01
2022-08-25T08:51:39.423Z,29.07
2022-08-25T08:54:20.678Z,29.11
2022-08-25T08:57:03.444Z,28.82
2022-08-25T08:59:41.953Z,28.44
2022-08-25T09:02:16.807Z,27.50
2022-08-25T09:05:17.001Z,27.69
2022-08-25T09:07:54.602Z,27.50
2022-08-25T09:10:24.860Z,27.15
2022-08-25T09:13:19.215Z,27.18
2022-08-25T09:16:31.742Z,24.29
2022-08-25T09:19:32.032Z,26.34
2022-08-25T09:22:34.938Z,25.59
2022-08-25T09:25:29.560Z,25.87
2022-08-25T09:28:26.185Z,24.03
2022-08-25T09:31:04.039Z,25.51
2022-08-25T09:33:35.714Z,26.06
2022-08-25T09:36:06.311Z,26.24
2022-08-25T09:38:36.810Z,25.75
2022-08-25T09:41:04.719Z,24.55
2022-08-25T09:43:40.442Z,24.64
2022-08-25T09:46:18.095Z,24.63
2022-08-25T09:48:56.937Z,24.33
2022-08-25T09:51:30.215Z,24.90
2022-08-25T09:54:18.260Z,24.86
2022-08-25T09:57:01.142Z,24.56
2022-08-25T09:59:37.348Z,24.74
2022-08-25T10:02:22.219Z,23.78
2022-08-25T10:04:49.822Z,24.14
2022-08-25T10:07:28.416Z,24.45
2022-08-25T10:10:01.883Z,24.44
2022-08-25T10:12:42.831Z,24.20
2022-08-25T10:15:30.145Z,24.38
2022-08-25T10:18:22.183Z,24.36
2022-08-25T10:21:03.213Z,24.77
2022-08-25T10:23:32.675Z,24.62
2022-08-25T10:26:06.695Z,24.00
2022-08-25T10:28:58.221Z,24.26
2022-08-25T10:31:37.125Z,23.92
2022-08-25T10:34:32.413Z,23.95
2022-08-25T10:37:27.526Z,23.83
2022-08-25T10:40:25.070Z,24.31
2022-08-25T10:43:16.495Z,24.15
2022-08-25T10:45:53.962Z,23.83
2022-08-25T10:48:34.142Z,23.90
2022-08-25T10:51:28.593Z,23.64
2022-08-25T10:54:20.463Z,24.49
2022-08-25T10:57:08.116Z,24.01
2022-08-25T10:59:57.790Z,24.28
2022-08-25T11:02:43.926Z,24.45
2022-08-25T11:05:30.577Z,24.82
2022-08-25T11:08:11.499Z,24.97
2022-08-25T11:10:47.944Z,25.54
2022-08-25T11:14:11.144Z,25.57
2022-08-25T11:16:48.772Z,25.51
2022-08-25T11:19:33.715Z,25.79
2022-08-25T11:22:20.426Z,26.52
2022-08-25T11:25:04.001Z,26.43
2022-08-25T11:27:41.924Z,25.93
2022-08-25T11:30:16.676Z,26.39
2022-08-25T11:32:49.495Z,25.91
2022-08-25T11:35:19.863Z,26.37
2022-08-25T11:38:19.480Z,25.65
2022-08-25T11:40:55.848Z,26.11
2022-08-25T11:43:41.162Z,26.73
2022-08-25T11:46:40.763Z,26.41
2022-08-25T11:49:58.338Z,25.52
2022-08-25T11:52:35.143Z,25.74
2022-08-25T11:55:22.747Z,25.54
2022-08-25T11:58:11.912Z,25.84
2022-08-25T12:00:43.836Z,25.45
2022-08-25T12:03:31.913Z,25.88
2022-08-25T12:06:23.578Z,25.60
2022-08-25T12:09:18.478Z,25.79
2022-08-25T12:11:54.727Z,26.13
2022-08-25T12:14:22.413Z,26.18
2022-08-25T12:16:56.954Z,26.01
2022-08-25T12:19:49.732Z,26.61
2022-08-25T12:22:37.263Z,26.46
2022-08-25T12:25:28.994Z,26.27
2022-08-25T12:28:35.039Z,26.55
2022-08-25T12:31:12.655Z,26.63
2022-08-25T12:33:48.967Z,26.33
2022-08-25T12:36:33.561Z,27.52
2022-08-25T12:39:28.589Z,27.24
2022-08-25T12:44:50.064Z,27.89
2022-08-25T12:47:23.438Z,27.74
2022-08-25T12:49:51.206Z,27.84
2022-08-25T12:52:25.174Z,28.33
2022-08-25T12:55:03.629Z,27.44
2022-08-25T12:57:40.629Z,27.21
2022-08-25T13:06:25.286Z,27.89
2022-08-25T13:08:58.434Z,29.16
2022-08-25T13:11:35.399Z,30.36
2022-08-25T13:14:14.899Z,29.91
2022-08-25T13:16:58.931Z,29.67
2022-08-25T13:19:28.091Z,29.51
2022-08-25T13:22:15.499Z,29.21
2022-08-25T13:24:47.314Z,28.76
2022-08-25T13:27:27.136Z,30.46
2022-08-25T13:29:58.338Z,29.86
2022-08-25T13:32:32.459Z,30.01
2022-08-25T13:35:26.583Z,29.45
2022-08-25T13:38:13.215Z,30.07
2022-08-25T13:40:41.034Z,29.88
2022-08-25T13:43:14.996Z,29.76
2022-08-25T13:45:50.553Z,29.39
2022-08-25T13:48:49.611Z,29.90
2022-08-25T13:51:23.177Z,30.23
2022-08-25T13:53:54.350Z,29.90
2022-08-25T13:56:39.952Z,30.31
2022-08-25T13:59:30.329Z,29.12
2022-08-25T14:01:57.855Z,29.07
2022-08-25T14:04:32.461Z,30.24
2022-08-25T14:07:19.642Z,30.10
2022-08-25T14:09:49.164Z,30.73
2022-08-25T14:12:57.520Z,30.39
2022-08-25T14:15:32.214Z,30.01
2022-08-25T14:18:02.435Z,30.02
2022-08-25T14:20:31.750Z,30.15
2022-08-25T14:23:02.680Z,30.82
2022-08-25T14:25:31.480Z,31.12
2022-08-25T14:28:10.618Z,31.58
2022-08-25T14:30:43.628Z,31.11
2022-08-25T14:33:15.196Z,31.59
2022-08-25T14:35:47.472Z,31.72
2022-08-25T14:38:15.855Z,31.19
2022-08-25T14:40:44.835Z,31.39
2022-08-25T14:43:12.669Z,31.56
2022-08-25T14:45:43.067Z,31.77
2022-08-25T14:48:22.256Z,31.78
2022-08-25T14:50:49.414Z,31.70
2022-08-25T14:53:17.942Z,31.91
2022-08-25T14:55:45.148Z,32.59
2022-08-25T14:58:12.194Z,32.70
2022-08-25T15:00:44.506Z,33.00
2022-08-25T15:03:34.311Z,32.81
2022-08-25T15:06:03.107Z,32.66
2022-08-25T15:08:50.521Z,32.58
2022-08-25T15:11:17.752Z,33.47
2022-08-25T15:13:49.403Z,33.15
2022-08-25T15:16:35.339Z,33.43
2022-08-25T15:19:06.964Z,33.84
2022-08-25T15:21:36.339Z,34.30
2022-08-25T15:24:05.695Z,34.57
2022-08-25T15:26:40.186Z,35.28
2022-08-25T15:29:07.423Z,35.19
2022-08-25T15:31:36.125Z,35.74
2022-08-25T15:34:03.525Z,35.32
2022-08-25T15:36:34.782Z,37.22
2022-08-25T15:39:03.346Z,36.84
2022-08-25T15:41:31.395Z,36.10
2022-08-25T15:44:00.617Z,37.05
2022-08-25T15:46:30.466Z,38.15
2022-08-25T15:48:59.705Z,38.68
2022-08-25T15:51:28.520Z,38.61
2022-08-25T15:53:56.523Z,38.61
2022-08-25T15:56:26.513Z,38.69
2022-08-25T15:59:05.458Z,39.65
2022-08-25T16:01:36.288Z,40.09
2022-08-25T16:04:04.013Z,40.74
2022-08-25T16:06:32.399Z,40.90
2022-08-25T16:09:00.722Z,41.21
2022-08-25T16:11:32.365Z,41.32
2022-08-25T16:13:59.625Z,41.95
2022-08-25T16:16:29.044Z,43.08
2022-08-25T16:18:56.796Z,43.25
2022-08-25T16:21:30.494Z,43.60
2022-08-25T16:24:01.198Z,43.92
2022-08-25T16:26:30.459Z,43.78
2022-08-25T16:28:57.588Z,44.59
2022-08-25T16:31:26.109Z,44.26
2022-08-25T16:33:57.644Z,44.88
2022-08-25T16:36:27.213Z,45.37
2022-08-25T16:38:58.091Z,45.44
2022-08-25T16:41:34.135Z,45.25
2022-08-25T16:44:07.964Z,46.46
2022-08-25T16:46:40.830Z,46.65
2022-08-25T16:49:09.887Z,47.08
2022-08-25T16:51:39.136Z,45.48
2022-08-25T16:54:27.962Z,46.78
2022-08-25T16:56:57.473Z,47.71
2022-08-25T16:59:24.979Z,47.44
2022-08-25T17:01:53.133Z,47.30
2022-08-25T17:04:21.659Z,47.56
2022-08-25T17:07:00.299Z,47.79
2022-08-25T17:09:30.228Z,47.79
2022-08-25T17:11:57.890Z,48.57
2022-08-25T17:14:24.984Z,49.20
2022-08-25T17:16:58.154Z,49.33
2022-08-25T17:19:26.009Z,49.39
2022-08-25T17:21:54.840Z,49.62
2022-08-25T17:24:29.537Z,49.49
2022-08-25T17:27:01.308Z,49.75
2022-08-25T17:29:28.820Z,49.90
2022-08-25T17:31:56.041Z,50.04
2022-08-25T17:34:23.942Z,49.90
2022-08-25T17:36:53.302Z,50.12
2022-08-25T17:39:22.547Z,49.99
2022-08-25T17:41:50.020Z,49.77
2022-08-25T17:44:18.107Z,49.12
2022-08-25T17:46:47.396Z,50.43
2022-08-25T17:49:18.789Z,49.89
2022-08-25T17:51:45.856Z,50.40
2022-08-25T17:54:16.122Z,51.07
2022-08-25T17:56:43.349Z,51.15
2022-08-25T17:59:12.072Z,51.68
2022-08-25T18:01:40.221Z,51.86
2022-08-25T18:04:16.898Z,52.03
2022-08-25T18:06:47.692Z,52.19
2022-08-25T18:09:15.738Z,52.44
2022-08-25T18:11:42.929Z,52.76
2022-08-25T18:14:11.502Z,53.24
2022-08-25T18:16:39.057Z,53.49
2022-08-25T18:19:10.963Z,53.29
2022-08-25T18:21:38.961Z,52.89
2022-08-25T18:24:07.409Z,53.35
2022-08-25T18:26:38.212Z,54.13
2022-08-25T18:29:05.719Z,54.17
2022-08-25T18:31:33.175Z,54.28
2022-08-25T18:34:05.126Z,54.69
2022-08-25T18:36:45.530Z,55.21
2022-08-25T18:39:34.786Z,55.35
2022-08-25T18:42:05.297Z,55.90
2022-08-25T18:44:32.911Z,55.74
2022-08-25T18:47:00.232Z,56.63
2022-08-25T18:49:35.167Z,56.39
2022-08-25T18:52:02.231Z,57.04
2022-08-25T18:54:30.329Z,57.06
2022-08-25T18:57:00.657Z,57.51
2022-08-25T18:59:28.319Z,57.60
2022-08-25T19:01:57.358Z,57.54
2022-08-25T19:04:28.553Z,57.13
2022-08-25T19:07:00.095Z,57.29
2022-08-25T19:09:27.365Z,56.91
2022-08-25T19:11:55.826Z,57.33
2022-08-25T19:14:23.446Z,58.02
2022-08-25T19:16:54.556Z,57.99
2022-08-25T19:19:23.115Z,57.98
2022-08-25T19:21:50.961Z,58.34
2022-08-25T19:24:19.405Z,58.66
2022-08-25T19:26:49.603Z,58.13
2022-08-25T19:29:19.925Z,58.19
2022-08-25T19:31:48.675Z,57.42
2022-08-25T19:34:21.702Z,56.93
2022-08-25T19:36:48.856Z,57.11
2022-08-25T19:39:16.506Z,57.76
2022-08-25T19:41:45.469Z,57.80
2022-08-25T19:44:13.095Z,56.91
2022-08-25T19:46:43.782Z,55.45
2022-08-25T19:49:21.096Z,54.74
2022-08-25T19:51:51.574Z,57.06
2022-08-25T19:54:23.813Z,56.58
2022-08-25T19:56:54.464Z,57.21
2022-08-25T19:59:40.845Z,56.52
2022-08-25T20:02:16.139Z,57.74
2022-08-25T20:04:50.263Z,57.02
2022-08-25T20:07:21.315Z,56.30
2022-08-25T20:09:50.200Z,55.18
2022-08-25T20:12:18.341Z,55.02
2022-08-25T20:14:47.197Z,55.17
2022-08-25T20:17:23.483Z,56.48
2022-08-25T20:19:57.463Z,57.03
2022-08-25T20:22:28.521Z,57.26
2022-08-25T20:25:12.946Z,57.36
2022-08-25T20:27:45.009Z,56.89
2022-08-25T20:30:24.097Z,57.68
2022-08-25T20:32:53.138Z,56.89
2022-08-25T20:35:26.371Z,57.23
2022-08-25T20:37:56.266Z,57.51
2022-08-25T20:40:25.416Z,57.01
2022-08-25T20:42:54.024Z,56.89
2022-08-25T20:45:24.802Z,58.24
2022-08-25T20:47:52.056Z,57.35
2022-08-25T20:50:22.997Z,55.65
2022-08-25T20:52:51.642Z,54.14
2022-08-25T20:55:19.238Z,55.49
2022-08-25T20:57:47.053Z,55.65
2022-08-25T21:00:15.675Z,55.21
2022-08-25T21:02:46.346Z,55.48
2022-08-25T21:05:14.565Z,57.41
2022-08-25T21:07:42.184Z,59.14
2022-08-25T21:10:14.549Z,60.05
2022-08-25T21:12:43.298Z,60.21
2022-08-25T21:15:11.979Z,59.93
2022-08-25T21:17:39.822Z,60.50
2022-08-25T21:20:08.840Z,61.82
2022-08-25T21:22:38.128Z,62.96
2022-08-25T21:25:06.668Z,63.21
2022-08-25T21:27:34.150Z,63.40
2022-08-25T21:30:01.330Z,63.93
2022-08-25T21:32:31.109Z,64.21
2022-08-25T21:34:59.051Z,62.65
2022-08-25T21:37:26.867Z,62.56
2022-08-25T21:39:54.694Z,62.77
2022-08-25T21:42:24.100Z,62.89
2022-08-25T21:44:52.609Z,63.75
2022-08-25T21:47:21.554Z,63.44
2022-08-25T21:49:50.996Z,64.39
2022-08-25T21:52:19.637Z,64.86
2022-08-25T21:54:47.302Z,65.33
2022-08-25T21:57:15.030Z,65.58
2022-08-25T21:59:43.459Z,65.73
2022-08-25T22:02:21.874Z,65.92
2022-08-25T22:04:54.601Z,65.81
2022-08-25T22:07:24.770Z,66.46
2022-08-25T22:09:52.993Z,66.01
2022-08-25T22:12:20.026Z,65.95
2022-08-25T22:14:47.815Z,65.46
2022-08-25T22:17:16.680Z,65.36
2022-08-25T22:19:45.626Z,65.87
2022-08-25T22:22:13.025Z,66.29
2022-08-25T22:24:40.220Z,66.21
2022-08-25T22:27:15.574Z,66.80
2022-08-25T22:29:44.697Z,67.03
2022-08-25T22:32:13.660Z,67.37
2022-08-25T22:34:41.420Z,67.56
2022-08-25T22:37:10.856Z,68.17
2022-08-25T22:39:38.538Z,68.56
2022-08-25T22:42:07.660Z,68.65
2022-08-25T22:44:37.348Z,69.05
2022-08-25T22:47:04.655Z,69.21
2022-08-25T22:49:32.169Z,69.68
2022-08-25T22:51:59.237Z,70.26
2022-08-25T22:54:26.604Z,70.76
2022-08-25T22:56:54.136Z,71.42
2022-08-25T22:59:22.126Z,71.76
2022-08-25T23:01:52.584Z,71.92
2022-08-25T23:04:22.263Z,72.07
2022-08-25T23:06:50.084Z,72.24
2022-08-25T23:09:17.395Z,72.23
2022-08-25T23:11:44.620Z,72.59
2022-08-25T23:14:12.898Z,72.89
2022-08-25T23:16:41.915Z,72.75
2022-08-25T23:19:14.365Z,73.07
2022-08-25T23:22:04.453Z,72.92
2022-08-25T23:24:31.854Z,72.83
2022-08-25T23:27:01.933Z,73.31
2022-08-25T23:29:29.607Z,73.68
2022-08-25T23:31:57.763Z,73.69
2022-08-25T23:34:26.091Z,73.54
2022-08-25T23:36:53.182Z,73.85
2022-08-25T23:39:21.818Z,73.52
2022-08-25T23:41:50.118Z,73.07
2022-08-25T23:44:18.789Z,72.81
2022-08-25T23:46:47.724Z,72.11
2022-08-25T23:49:18.409Z,71.29
2022-08-25T23:51:48.808Z,70.30
2022-08-25T23:54:19.001Z,69.90
2022-08-25T23:56:51.572Z,70.30
2022-08-25T23:59:24.489Z,70.12
